Hyndsville, New York
Current Conditions -  °F | °C
As of 1:15 PM on Thursday 29 Jan 2015 (Local Time) from KNY0 Reporting Station
Scattered Clouds Scattered Clouds  
Wind Chill: 15°   Ceiling: Unl
Heat Index: 23°   Visibility: 10mi
Dew Point:   Wind: 7mph
Humidity: 37%   Direction: 110°ESE
Pressure: 30.08"   Gusts: NA
Location:  42.6995°N, 74.5108°W
Report Text: KNY0 291815Z AUTO 11006KT 10SM SCT120 M05/M18 A3008 RMK AO2 T10511178
Loading
Personal Weather Stations






























Interactive Weather Map New forecast layout! Learn more

10-Day Weather Forecast

Advertisements
Track Severe Weather on mobile